createdAt,value
2018-11-07T00:00:57.250Z,11.80
2018-11-07T00:03:29.089Z,11.80
2018-11-07T00:06:06.531Z,11.76
2018-11-07T00:08:43.942Z,11.76
2018-11-07T00:11:18.501Z,11.76
2018-11-07T00:13:48.400Z,11.76
2018-11-07T00:16:18.901Z,11.77
2018-11-07T00:18:48.542Z,11.76
2018-11-07T00:21:23.145Z,11.78
2018-11-07T00:24:11.792Z,11.76
2018-11-07T00:27:03.797Z,11.74
2018-11-07T00:29:34.516Z,11.73
2018-11-07T00:32:14.551Z,11.73
2018-11-07T00:34:46.103Z,11.71
2018-11-07T00:37:19.622Z,11.70
2018-11-07T00:39:49.079Z,11.66
2018-11-07T00:42:25.941Z,11.65
2018-11-07T00:45:00.588Z,11.64
2018-11-07T00:47:47.173Z,11.66
2018-11-07T00:50:28.555Z,11.64
2018-11-07T00:52:58.049Z,11.63
2018-11-07T00:55:31.635Z,11.65
2018-11-07T00:58:01.491Z,11.66
2018-11-07T01:00:32.088Z,11.68
2018-11-07T01:03:02.839Z,11.66
2018-11-07T01:05:33.534Z,11.63
2018-11-07T01:08:04.237Z,11.66
2018-11-07T01:10:46.473Z,11.59
2018-11-07T01:13:23.940Z,11.56
2018-11-07T01:15:54.388Z,11.54
2018-11-07T01:18:25.887Z,11.49
2018-11-07T01:20:56.427Z,11.50
2018-11-07T01:23:25.867Z,11.49
2018-11-07T01:25:55.340Z,11.48
2018-11-07T01:28:24.913Z,11.49
2018-11-07T01:30:57.724Z,11.45
2018-11-07T01:33:31.800Z,11.41
2018-11-07T01:36:05.360Z,11.37
2018-11-07T01:38:34.767Z,11.35
2018-11-07T01:41:07.645Z,11.32
2018-11-07T01:43:38.320Z,11.31
2018-11-07T01:46:21.554Z,11.31
2018-11-07T01:48:51.328Z,11.32
2018-11-07T01:54:18.363Z,11.43
2018-11-07T01:56:51.970Z,11.44
2018-11-07T01:59:22.370Z,11.46
2018-11-07T02:01:57.204Z,11.45
2018-11-07T02:04:27.628Z,11.46
2018-11-07T02:06:57.070Z,11.46
2018-11-07T02:09:32.130Z,11.46
2018-11-07T02:12:02.679Z,11.45
2018-11-07T02:14:32.397Z,11.45
2018-11-07T02:17:24.949Z,11.45
2018-11-07T02:19:56.589Z,11.43
2018-11-07T02:22:26.519Z,11.42
2018-11-07T02:24:58.035Z,11.40
2018-11-07T02:27:30.430Z,11.39
2018-11-07T02:30:19.308Z,11.37
2018-11-07T02:32:48.742Z,11.36
2018-11-07T02:35:23.629Z,11.33
2018-11-07T02:38:00.798Z,11.31
2018-11-07T02:40:42.997Z,11.29
2018-11-07T02:46:19.019Z,11.29
2018-11-07T02:49:07.544Z,11.29
2018-11-07T02:51:42.185Z,11.30
2018-11-07T02:54:16.831Z,11.31
2018-11-07T03:02:31.788Z,11.32
2018-11-07T03:05:07.799Z,11.31
2018-11-07T03:07:42.007Z,11.30
2018-11-07T03:10:30.972Z,11.29
2018-11-07T03:13:17.296Z,11.29
2018-11-07T03:15:46.674Z,11.27
2018-11-07T03:18:21.238Z,11.27
2018-11-07T03:20:53.902Z,11.27
2018-11-07T03:23:23.954Z,11.21
2018-11-07T03:25:54.360Z,11.20
2018-11-07T03:28:36.931Z,11.20
2018-11-07T03:31:07.298Z,11.20
2018-11-07T03:33:44.439Z,11.19
2018-11-07T03:36:19.943Z,11.19
2018-11-07T03:38:49.469Z,11.20
2018-11-07T03:41:30.348Z,11.22
2018-11-07T03:43:59.959Z,11.20
2018-11-07T03:46:31.458Z,11.20
2018-11-07T03:49:04.214Z,11.19
2018-11-07T03:51:39.308Z,11.19
2018-11-07T03:54:09.066Z,11.18
2018-11-07T03:56:58.019Z,11.16
2018-11-07T03:59:27.546Z,11.14
2018-11-07T04:02:00.436Z,11.14
2018-11-07T04:04:37.192Z,11.12
2018-11-07T04:07:10.845Z,11.10
2018-11-07T04:09:46.452Z,11.11
2018-11-07T04:12:23.794Z,11.13
2018-11-07T04:14:56.783Z,11.13
2018-11-07T04:20:36.458Z,11.15
2018-11-07T04:23:10.925Z,11.17
2018-11-07T04:25:42.465Z,11.18
2018-11-07T04:28:15.045Z,11.20
2018-11-07T04:30:49.740Z,11.20
2018-11-07T04:33:19.480Z,11.19
2018-11-07T04:36:06.185Z,11.17
2018-11-07T04:38:39.479Z,11.08
2018-11-07T04:41:08.943Z,11.08
2018-11-07T04:43:41.867Z,11.08
2018-11-07T04:46:11.699Z,11.07
2018-11-07T04:48:41.731Z,11.05
2018-11-07T04:51:11.222Z,11.02
2018-11-07T04:53:44.442Z,11.05
2018-11-07T04:56:13.878Z,11.07
2018-11-07T04:58:43.627Z,11.08
2018-11-07T05:01:12.995Z,11.08
2018-11-07T05:03:42.821Z,11.09
2018-11-07T05:06:12.260Z,11.08
2018-11-07T05:08:41.837Z,11.07
2018-11-07T05:11:11.140Z,11.07
2018-11-07T05:13:41.167Z,11.07
2018-11-07T05:16:10.600Z,11.04
2018-11-07T05:18:40.163Z,11.00
2018-11-07T05:21:10.581Z,11.02
2018-11-07T05:23:40.266Z,11.05
2018-11-07T05:26:09.785Z,11.00
2018-11-07T05:28:40.486Z,11.00
2018-11-07T05:31:10.064Z,10.97
2018-11-07T05:33:39.648Z,10.92
2018-11-07T05:36:09.387Z,10.98
2018-11-07T05:38:38.867Z,10.98
2018-11-07T05:41:08.362Z,10.98
2018-11-07T05:43:37.782Z,10.97
2018-11-07T05:46:08.068Z,10.98
2018-11-07T05:48:38.583Z,10.96
2018-11-07T05:51:08.291Z,10.95
2018-11-07T05:53:39.376Z,10.94
2018-11-07T05:56:09.085Z,10.95
2018-11-07T05:58:39.638Z,10.96
2018-11-07T06:01:09.440Z,10.96
2018-11-07T06:03:39.008Z,10.95
2018-11-07T06:06:08.626Z,10.99
2018-11-07T06:08:38.135Z,10.98
2018-11-07T06:11:08.002Z,10.99
2018-11-07T06:13:37.469Z,10.95
2018-11-07T06:16:07.865Z,10.91
2018-11-07T06:18:37.390Z,10.89
2018-11-07T06:21:07.152Z,10.92
2018-11-07T06:23:36.541Z,10.95
2018-11-07T06:26:06.512Z,10.98
2018-11-07T06:28:36.045Z,10.99
2018-11-07T06:31:05.722Z,10.97
2018-11-07T06:33:35.474Z,11.01
2018-11-07T06:36:05.214Z,11.01
2018-11-07T06:38:34.806Z,10.94
2018-11-07T06:41:04.425Z,10.99
2018-11-07T06:43:35.158Z,10.99
2018-11-07T06:46:04.815Z,10.95
2018-11-07T06:48:34.117Z,10.93
2018-11-07T06:51:03.557Z,10.87
2018-11-07T06:53:33.022Z,10.90
2018-11-07T06:56:02.667Z,10.91
2018-11-07T06:58:32.121Z,11.05
2018-11-07T07:01:05.226Z,11.09
2018-11-07T07:03:34.819Z,11.10
2018-11-07T07:06:04.607Z,11.09
2018-11-07T07:08:34.361Z,11.04
2018-11-07T07:11:04.113Z,11.04
2018-11-07T07:13:33.616Z,10.99
2018-11-07T07:16:03.287Z,11.01
2018-11-07T07:18:32.791Z,11.13
2018-11-07T07:21:02.496Z,11.25
2018-11-07T07:23:31.832Z,11.38
2018-11-07T07:26:01.463Z,11.42
2018-11-07T07:28:30.898Z,11.42
2018-11-07T07:31:01.299Z,11.50
2018-11-07T07:33:30.728Z,11.53
2018-11-07T07:36:00.425Z,11.59
2018-11-07T07:38:30.003Z,11.64
2018-11-07T07:40:59.636Z,11.79
2018-11-07T07:43:29.083Z,11.87
2018-11-07T07:45:58.559Z,11.86
2018-11-07T07:48:27.957Z,11.93
2018-11-07T07:50:57.485Z,12.04
2018-11-07T07:53:27.472Z,12.06
2018-11-07T07:55:56.981Z,12.00
2018-11-07T07:58:26.402Z,12.01
2018-11-07T08:00:56.103Z,12.14
2018-11-07T08:03:25.666Z,12.25
2018-11-07T08:05:55.301Z,12.36
2018-11-07T08:08:24.937Z,12.51
2018-11-07T08:10:54.492Z,12.69
2018-11-07T08:13:23.989Z,12.42
2018-11-07T08:15:53.735Z,12.25
2018-11-07T08:18:23.439Z,12.22
2018-11-07T08:20:53.041Z,12.32
2018-11-07T08:23:22.676Z,12.25
2018-11-07T08:25:52.103Z,12.26
2018-11-07T08:28:21.548Z,12.27
2018-11-07T08:30:51.649Z,12.38
2018-11-07T08:33:20.954Z,12.42
2018-11-07T08:35:50.505Z,12.54
2018-11-07T08:38:19.934Z,12.58
2018-11-07T08:40:50.099Z,12.51
2018-11-07T08:43:19.788Z,12.62
2018-11-07T08:45:49.221Z,12.48
2018-11-07T08:48:18.900Z,12.52
2018-11-07T08:50:48.440Z,12.63
2018-11-07T08:53:17.947Z,12.78
2018-11-07T08:55:47.394Z,12.99
2018-11-07T08:58:17.056Z,13.13
2018-11-07T09:00:46.623Z,13.09
2018-11-07T09:03:16.113Z,12.95
2018-11-07T09:05:45.685Z,12.98
2018-11-07T09:08:15.242Z,12.92
2018-11-07T09:10:44.906Z,13.08
2018-11-07T09:13:14.327Z,13.11
2018-11-07T09:15:44.120Z,13.12
2018-11-07T09:18:13.618Z,12.91
2018-11-07T09:20:43.312Z,13.00
2018-11-07T09:23:13.041Z,13.09
2018-11-07T09:25:43.123Z,13.11
2018-11-07T09:28:12.594Z,13.04
2018-11-07T09:30:42.340Z,13.26
2018-11-07T09:33:12.203Z,13.43
2018-11-07T09:35:41.824Z,13.66
2018-11-07T09:38:13.551Z,13.89
2018-11-07T09:40:43.305Z,14.07
2018-11-07T09:43:12.738Z,14.21
2018-11-07T09:45:42.502Z,13.97
2018-11-07T09:48:12.006Z,14.01
2018-11-07T09:50:42.677Z,13.77
2018-11-07T09:53:12.109Z,13.71
2018-11-07T09:55:41.718Z,14.00
2018-11-07T09:58:11.326Z,14.24
2018-11-07T10:00:44.955Z,14.28
2018-11-07T10:03:14.352Z,14.37
2018-11-07T10:05:43.796Z,14.29
2018-11-07T10:08:13.225Z,14.28
2018-11-07T10:10:42.700Z,14.07
2018-11-07T10:13:12.178Z,13.85
2018-11-07T10:15:41.656Z,13.88
2018-11-07T10:18:11.080Z,13.86
2018-11-07T10:20:40.774Z,13.81
2018-11-07T10:23:10.196Z,13.87
2018-11-07T10:25:40.363Z,13.91
2018-11-07T10:28:11.208Z,13.97
2018-11-07T10:30:40.484Z,13.84
2018-11-07T10:33:09.883Z,13.99
2018-11-07T10:35:39.286Z,13.94
2018-11-07T10:38:08.964Z,13.85
2018-11-07T10:40:38.492Z,13.76
2018-11-07T10:43:07.875Z,13.71
2018-11-07T10:45:37.377Z,13.83
2018-11-07T10:48:07.143Z,13.94
2018-11-07T10:50:36.912Z,13.91
2018-11-07T10:53:06.427Z,13.79
2018-11-07T10:55:35.960Z,13.89
2018-11-07T10:58:06.184Z,13.79
2018-11-07T11:02:45.347Z,13.87
2018-11-07T11:05:16.646Z,13.69
2018-11-07T11:07:46.077Z,13.79
2018-11-07T11:10:15.504Z,13.94
2018-11-07T11:12:45.758Z,14.04
2018-11-07T11:15:15.302Z,14.11
2018-11-07T11:17:44.748Z,14.16
2018-11-07T11:20:15.361Z,14.40
2018-11-07T11:22:44.987Z,14.49
2018-11-07T11:25:14.665Z,14.48
2018-11-07T11:27:44.333Z,14.60
2018-11-07T11:30:13.875Z,14.63
2018-11-07T11:32:43.622Z,14.66
2018-11-07T11:35:13.423Z,14.71
2018-11-07T11:37:42.895Z,14.84
2018-11-07T11:40:13.945Z,14.84
2018-11-07T11:42:46.515Z,14.90
2018-11-07T11:45:17.301Z,15.00
2018-11-07T11:47:47.602Z,14.92
2018-11-07T11:50:18.320Z,15.00
2018-11-07T11:52:49.060Z,15.12
2018-11-07T11:55:18.599Z,15.05
2018-11-07T11:57:48.980Z,15.26
2018-11-07T12:00:20.020Z,15.47
2018-11-07T12:02:50.329Z,15.59
2018-11-07T12:05:20.796Z,15.77
2018-11-07T12:07:50.519Z,16.01
2018-11-07T12:10:22.103Z,16.05
2018-11-07T12:12:53.223Z,16.11
2018-11-07T12:15:24.318Z,15.56
2018-11-07T12:17:55.194Z,15.11
2018-11-07T12:20:24.693Z,14.95
2018-11-07T12:22:54.394Z,14.60
2018-11-07T12:25:23.863Z,14.30
2018-11-07T12:27:53.410Z,14.43
2018-11-07T12:30:24.299Z,14.64
2018-11-07T12:32:54.836Z,14.92
2018-11-07T12:35:24.878Z,14.94
2018-11-07T12:37:54.581Z,14.93
2018-11-07T12:40:24.078Z,15.02
2018-11-07T12:42:53.568Z,15.11
2018-11-07T12:45:23.323Z,15.28
2018-11-07T12:47:52.977Z,15.19
2018-11-07T12:50:24.220Z,14.95
2018-11-07T12:52:53.879Z,14.80
2018-11-07T12:55:23.962Z,14.81
2018-11-07T12:57:53.612Z,14.86
2018-11-07T13:00:24.450Z,14.83
2018-11-07T13:02:53.975Z,14.87
2018-11-07T13:05:24.610Z,14.86
2018-11-07T13:07:55.051Z,14.80
2018-11-07T13:10:25.395Z,14.59
2018-11-07T13:12:56.416Z,14.41
2018-11-07T13:15:26.031Z,14.22
2018-11-07T13:17:58.842Z,14.12
2018-11-07T13:20:28.451Z,14.16
2018-11-07T13:22:58.029Z,14.04
2018-11-07T13:25:27.775Z,13.97
2018-11-07T13:27:57.443Z,13.88
2018-11-07T13:30:26.821Z,13.92
2018-11-07T13:32:56.361Z,13.93
2018-11-07T13:35:26.204Z,13.90
2018-11-07T13:37:56.055Z,13.92
2018-11-07T13:40:26.676Z,13.98
2018-11-07T13:42:56.423Z,13.94
2018-11-07T13:45:26.259Z,13.87
2018-11-07T13:47:56.381Z,13.86
2018-11-07T13:50:26.064Z,13.94
2018-11-07T13:52:55.744Z,13.99
2018-11-07T13:55:25.409Z,14.09
2018-11-07T13:57:55.418Z,14.19
2018-11-07T14:00:25.386Z,14.24
2018-11-07T14:02:55.139Z,14.22
2018-11-07T14:05:24.970Z,14.20
2018-11-07T14:07:54.561Z,14.18
2018-11-07T14:10:25.469Z,14.07
2018-11-07T14:12:56.112Z,14.06
2018-11-07T14:15:25.741Z,14.09
2018-11-07T14:17:55.310Z,14.03
2018-11-07T14:20:24.918Z,13.90
2018-11-07T14:22:54.543Z,13.82
2018-11-07T14:25:24.126Z,13.79
2018-11-07T14:27:55.353Z,13.84
2018-11-07T14:30:24.868Z,13.85
2018-11-07T14:32:56.902Z,13.72
2018-11-07T14:35:26.602Z,13.63
2018-11-07T14:37:57.568Z,13.58
2018-11-07T14:40:27.009Z,13.62
2018-11-07T14:42:56.622Z,13.51
2018-11-07T14:45:26.171Z,13.50
2018-11-07T14:47:55.944Z,13.50
2018-11-07T14:50:25.689Z,13.45
2018-11-07T14:52:55.253Z,13.40
2018-11-07T14:55:24.897Z,13.40
2018-11-07T14:57:55.309Z,13.40
2018-11-07T15:00:24.825Z,13.38
2018-11-07T15:02:54.491Z,13.27
2018-11-07T15:05:23.981Z,13.16
2018-11-07T15:07:53.694Z,13.10
2018-11-07T15:10:23.163Z,13.03
2018-11-07T15:12:52.619Z,12.97
2018-11-07T15:15:22.191Z,12.94
2018-11-07T15:17:51.783Z,12.88
2018-11-07T15:20:21.390Z,12.84
2018-11-07T15:22:51.025Z,12.80
2018-11-07T15:25:20.922Z,12.73
2018-11-07T15:27:50.553Z,12.62
2018-11-07T15:30:19.937Z,12.53
2018-11-07T15:32:49.646Z,12.41
2018-11-07T15:35:20.291Z,12.33
2018-11-07T15:37:50.231Z,12.24
2018-11-07T15:40:19.950Z,12.19
2018-11-07T15:42:50.871Z,12.13
2018-11-07T15:45:21.403Z,12.03
2018-11-07T15:47:56.117Z,11.94
2018-11-07T15:50:30.922Z,11.88
2018-11-07T15:53:01.072Z,11.86
2018-11-07T15:55:30.689Z,11.86
2018-11-07T15:58:00.373Z,11.87
2018-11-07T16:00:31.508Z,11.89
2018-11-07T16:03:01.239Z,11.90
2018-11-07T16:05:30.983Z,11.89
2018-11-07T16:08:00.751Z,11.87
2018-11-07T16:10:30.176Z,11.85
2018-11-07T16:12:59.848Z,11.85
2018-11-07T16:15:29.472Z,11.83
2018-11-07T16:17:58.987Z,11.82
2018-11-07T16:20:29.028Z,11.80
2018-11-07T16:22:58.933Z,11.81
2018-11-07T16:25:28.423Z,11.81
2018-11-07T16:27:58.182Z,11.81
2018-11-07T16:30:28.077Z,11.81
2018-11-07T16:32:57.814Z,11.81
2018-11-07T16:35:27.512Z,11.80
2018-11-07T16:37:57.111Z,11.78
2018-11-07T16:40:26.752Z,11.78
2018-11-07T16:42:56.329Z,11.75
2018-11-07T16:45:25.854Z,11.76
2018-11-07T16:47:55.591Z,11.78
2018-11-07T16:50:25.086Z,11.80
2018-11-07T16:52:54.700Z,11.84
2018-11-07T16:55:24.265Z,11.86
2018-11-07T16:57:54.054Z,11.84
2018-11-07T17:00:23.797Z,11.80
2018-11-07T17:02:53.349Z,11.79
2018-11-07T17:05:23.006Z,11.74
2018-11-07T17:07:52.776Z,11.73
2018-11-07T17:10:22.268Z,11.73
2018-11-07T17:12:52.037Z,11.69
2018-11-07T17:15:21.387Z,11.64
2018-11-07T17:17:51.010Z,11.61
2018-11-07T17:20:20.912Z,11.60
2018-11-07T17:22:50.671Z,11.55
2018-11-07T17:25:20.712Z,11.52
2018-11-07T17:27:50.438Z,11.51
2018-11-07T17:30:20.264Z,11.46
2018-11-07T17:32:50.075Z,11.45
2018-11-07T17:35:20.299Z,11.42
2018-11-07T17:37:49.946Z,11.43
2018-11-07T17:40:21.389Z,11.43
2018-11-07T17:42:51.646Z,11.39
2018-11-07T17:45:22.377Z,11.36
2018-11-07T17:47:53.253Z,11.30
2018-11-07T17:50:23.794Z,11.26
2018-11-07T17:52:53.925Z,11.20
2018-11-07T17:55:24.272Z,11.15
2018-11-07T17:57:53.820Z,11.08
2018-11-07T18:00:27.484Z,11.03
2018-11-07T18:02:57.075Z,10.97
2018-11-07T18:05:28.801Z,10.94
2018-11-07T18:07:59.174Z,10.90
2018-11-07T18:10:28.629Z,10.82
2018-11-07T18:12:58.193Z,10.73
2018-11-07T18:15:27.894Z,10.60
2018-11-07T18:17:57.562Z,10.43
2018-11-07T18:20:27.154Z,10.34
2018-11-07T18:22:57.128Z,10.22
2018-11-07T18:25:26.832Z,10.13
2018-11-07T18:27:56.477Z,10.09
2018-11-07T18:30:26.212Z,10.05
2018-11-07T18:33:02.436Z,10.05
2018-11-07T18:35:32.282Z,10.01
2018-11-07T18:38:02.091Z,9.97
2018-11-07T18:40:31.871Z,9.95
2018-11-07T18:43:03.994Z,9.91
2018-11-07T18:45:33.951Z,9.83
2018-11-07T18:48:03.656Z,9.79
2018-11-07T18:50:34.228Z,9.79
2018-11-07T18:53:08.111Z,9.92
2018-11-07T18:55:37.713Z,10.00
2018-11-07T18:58:08.853Z,10.06
2018-11-07T19:00:38.651Z,10.07
2018-11-07T19:03:10.192Z,10.10
2018-11-07T19:05:39.812Z,10.12
2018-11-07T19:08:10.859Z,10.11
2018-11-07T19:10:42.110Z,10.12
2018-11-07T19:13:11.786Z,10.13
2018-11-07T19:15:41.332Z,10.13
2018-11-07T19:18:11.473Z,10.15
2018-11-07T19:20:41.392Z,10.19
2018-11-07T19:23:11.414Z,10.23
2018-11-07T19:25:41.086Z,10.27
2018-11-07T19:28:11.655Z,10.29
2018-11-07T19:30:42.332Z,10.32
2018-11-07T19:33:12.336Z,10.29
2018-11-07T19:35:42.105Z,10.30
2018-11-07T19:38:12.942Z,10.26
2018-11-07T19:40:56.753Z,10.22
2018-11-07T19:43:26.494Z,10.16
2018-11-07T19:45:56.199Z,10.11
2018-11-07T19:48:26.142Z,10.08
2018-11-07T19:50:55.909Z,10.02
2018-11-07T19:53:25.672Z,9.97
2018-11-07T19:55:55.123Z,9.90
2018-11-07T19:58:25.684Z,9.80
2018-11-07T20:00:55.936Z,9.62
2018-11-07T20:03:25.977Z,9.46
2018-11-07T20:05:55.902Z,9.34
2018-11-07T20:08:26.895Z,9.24
2018-11-07T20:10:57.442Z,9.15
2018-11-07T20:13:27.480Z,9.08
2018-11-07T20:15:57.240Z,8.97
2018-11-07T20:18:26.780Z,8.86
2018-11-07T20:20:56.491Z,8.71
2018-11-07T20:23:26.142Z,8.60
2018-11-07T20:25:55.615Z,8.54
2018-11-07T20:28:25.522Z,8.53
2018-11-07T20:30:55.408Z,8.53
2018-11-07T20:33:26.095Z,8.62
2018-11-07T20:35:57.162Z,8.64
2018-11-07T20:38:27.798Z,8.64
2018-11-07T20:40:57.712Z,8.60
2018-11-07T20:43:28.186Z,8.51
2018-11-07T20:45:58.823Z,8.44
2018-11-07T20:48:28.685Z,8.43
2018-11-07T20:50:58.412Z,8.37
2018-11-07T20:53:29.231Z,8.34
2018-11-07T20:55:58.997Z,8.31
2018-11-07T20:58:29.084Z,8.28
2018-11-07T21:00:58.789Z,8.28
2018-11-07T21:03:29.721Z,8.29
2018-11-07T21:05:59.454Z,8.28
2018-11-07T21:08:30.045Z,8.31
2018-11-07T21:11:00.649Z,8.43
2018-11-07T21:13:31.328Z,8.56
2018-11-07T21:16:01.071Z,8.71
2018-11-07T21:18:31.361Z,8.92
2018-11-07T21:21:01.671Z,9.02
2018-11-07T21:23:32.964Z,9.07
2018-11-07T21:26:02.674Z,9.13
2018-11-07T21:28:32.378Z,9.20
2018-11-07T21:31:02.289Z,9.25
2018-11-07T21:33:31.944Z,9.28
2018-11-07T21:36:02.098Z,9.29
2018-11-07T21:38:31.924Z,9.33
2018-11-07T21:41:02.201Z,9.42
2018-11-07T21:43:31.919Z,9.47
2018-11-07T21:46:01.680Z,9.54
2018-11-07T21:48:31.467Z,9.61
2018-11-07T21:51:01.329Z,9.64
2018-11-07T21:53:31.219Z,9.72
2018-11-07T21:56:01.127Z,9.76
2018-11-07T21:58:30.949Z,9.81
2018-11-07T22:01:00.790Z,9.81
2018-11-07T22:03:30.521Z,9.83
2018-11-07T22:06:00.280Z,9.85
2018-11-07T22:08:29.921Z,9.91
2018-11-07T22:10:59.640Z,9.96
2018-11-07T22:13:29.409Z,10.01
2018-11-07T22:15:59.148Z,10.03
2018-11-07T22:18:28.924Z,10.04
2018-11-07T22:20:58.700Z,10.06
2018-11-07T22:23:28.452Z,10.08
2018-11-07T22:25:58.373Z,10.07
2018-11-07T22:28:28.090Z,10.14
2018-11-07T22:30:57.886Z,10.18
2018-11-07T22:33:27.477Z,10.21
2018-11-07T22:35:57.305Z,10.24
2018-11-07T22:38:26.987Z,10.26
2018-11-07T22:40:56.602Z,10.25
2018-11-07T22:43:26.202Z,10.26
2018-11-07T22:45:55.952Z,10.28
2018-11-07T22:48:25.727Z,10.29
2018-11-07T22:50:55.790Z,10.32
2018-11-07T22:53:25.425Z,10.33
2018-11-07T22:55:55.560Z,10.31
2018-11-07T22:58:25.128Z,10.34
2018-11-07T23:01:02.913Z,10.35
2018-11-07T23:03:32.781Z,10.35
2018-11-07T23:06:02.451Z,10.36
2018-11-07T23:08:32.140Z,10.39
2018-11-07T23:11:01.767Z,10.36
2018-11-07T23:13:31.380Z,10.34
2018-11-07T23:16:01.067Z,10.32
2018-11-07T23:18:30.868Z,10.35
2018-11-07T23:21:00.631Z,10.34
2018-11-07T23:23:30.211Z,10.37
2018-11-07T23:25:59.902Z,10.36
2018-11-07T23:28:29.541Z,10.36
2018-11-07T23:30:59.342Z,10.36
2018-11-07T23:33:29.067Z,10.35
2018-11-07T23:35:58.819Z,10.35
2018-11-07T23:38:28.924Z,10.38
2018-11-07T23:40:58.515Z,10.39
2018-11-07T23:43:28.155Z,10.43
2018-11-07T23:45:57.745Z,10.43
2018-11-07T23:48:27.341Z,10.45
2018-11-07T23:50:57.079Z,10.41
2018-11-07T23:53:26.589Z,10.44
2018-11-07T23:55:56.411Z,10.44
2018-11-07T23:58:26.198Z,10.40
